createdAt,value
2024-01-28T00:01:53.370Z,1027.4
2024-01-28T00:04:53.288Z,1027.4
2024-01-28T00:07:53.299Z,1027.3
2024-01-28T00:10:53.300Z,1027.4
2024-01-28T00:13:53.306Z,1027.4
2024-01-28T00:16:53.334Z,1027.3
2024-01-28T00:19:53.380Z,1027.3
2024-01-28T00:22:53.306Z,1027.3
2024-01-28T00:25:53.300Z,1027.3
2024-01-28T00:28:53.297Z,1027.3
2024-01-28T00:31:53.297Z,1027.2
2024-01-28T00:34:53.454Z,1027.3
2024-01-28T00:37:53.304Z,1027.3
2024-01-28T00:40:53.305Z,1027.3
2024-01-28T00:43:53.330Z,1027.3
2024-01-28T00:46:53.309Z,1027.1
2024-01-28T00:49:53.394Z,1027.1
2024-01-28T00:52:53.318Z,1027.2
2024-01-28T00:55:53.334Z,1027.2
2024-01-28T00:58:53.316Z,1027.2
2024-01-28T01:01:53.323Z,1027.2
2024-01-28T01:04:53.328Z,1027.2
2024-01-28T01:07:53.319Z,1027.2
2024-01-28T01:10:53.327Z,1027.2
2024-01-28T01:13:53.332Z,1027.2
2024-01-28T01:16:53.390Z,1027.2
2024-01-28T01:19:53.361Z,1027.3
2024-01-28T01:22:53.322Z,1027.1
2024-01-28T01:25:53.337Z,1027.2
2024-01-28T01:28:53.328Z,1027.1
2024-01-28T01:31:53.488Z,1027.2
2024-01-28T01:34:53.495Z,1027.1
2024-01-28T01:37:53.334Z,1027.1
2024-01-28T01:40:53.335Z,1027
2024-01-28T01:43:53.334Z,1027
2024-01-28T01:46:53.492Z,1027.1
2024-01-28T01:49:53.460Z,1027
2024-01-28T01:52:53.363Z,1026.9
2024-01-28T01:55:53.352Z,1027
2024-01-28T01:58:53.349Z,1027
2024-01-28T02:01:53.353Z,1027
2024-01-28T02:04:53.351Z,1027
2024-01-28T02:07:53.348Z,1026.9
2024-01-28T02:10:53.355Z,1026.9
2024-01-28T02:13:53.360Z,1026.8
2024-01-28T02:16:53.366Z,1026.8
2024-01-28T02:19:53.460Z,1026.8
2024-01-28T02:22:53.368Z,1026.9
2024-01-28T02:25:53.370Z,1026.9
2024-01-28T02:28:53.371Z,1026.9
2024-01-28T02:31:53.372Z,1026.8
2024-01-28T02:34:53.378Z,1026.8
2024-01-28T02:37:53.383Z,1026.7
2024-01-28T02:40:53.409Z,1026.7
2024-01-28T02:43:53.391Z,1026.6
2024-01-28T02:46:53.388Z,1026.6
2024-01-28T02:49:53.410Z,1026.6
2024-01-28T02:52:53.398Z,1026.7
2024-01-28T02:55:53.390Z,1026.6
2024-01-28T02:58:53.393Z,1026.4
2024-01-28T03:01:53.393Z,1026.3
2024-01-28T03:04:53.416Z,1026.4
2024-01-28T03:07:53.404Z,1026.4
2024-01-28T03:10:53.405Z,1026.4
2024-01-28T03:13:53.408Z,1026.4
2024-01-28T03:16:53.411Z,1026.3
2024-01-28T03:19:53.431Z,1026.3
2024-01-28T03:22:53.401Z,1026.3
2024-01-28T03:25:53.406Z,1026.2
2024-01-28T03:28:53.413Z,1026.2
2024-01-28T03:31:53.414Z,1026.2
2024-01-28T03:34:53.586Z,1026.1
2024-01-28T03:37:53.416Z,1026.1
2024-01-28T03:40:53.426Z,1026
2024-01-28T03:43:53.424Z,1026
2024-01-28T03:46:53.422Z,1026.1
2024-01-28T03:49:53.419Z,1026
2024-01-28T03:52:53.419Z,1026.1
2024-01-28T03:55:53.424Z,1026.1
2024-01-28T03:58:53.424Z,1026
2024-01-28T04:01:53.520Z,1026.2
2024-01-28T04:04:53.485Z,1026
2024-01-28T04:07:53.442Z,1026
2024-01-28T04:10:53.437Z,1025.9
2024-01-28T04:13:53.439Z,1026.1
2024-01-28T04:16:53.448Z,1026.2
2024-01-28T04:19:53.668Z,1026.2
2024-01-28T04:22:53.443Z,1026.2
2024-01-28T04:25:53.444Z,1026.2
2024-01-28T04:28:53.441Z,1026.2
2024-01-28T04:31:53.587Z,1026.1
2024-01-28T04:34:53.514Z,1026.1
2024-01-28T04:37:53.467Z,1026
2024-01-28T04:40:54.971Z,1026
2024-01-28T04:43:53.454Z,1026
2024-01-28T04:46:53.465Z,1026.1
2024-01-28T04:49:53.670Z,1026.1
2024-01-28T04:52:53.462Z,1026.1
2024-01-28T04:55:53.464Z,1025.9
2024-01-28T04:58:53.473Z,1026
2024-01-28T05:01:53.473Z,1025.9
2024-01-28T05:04:53.476Z,1026
2024-01-28T05:07:53.475Z,1025.9
2024-01-28T05:10:53.475Z,1026
2024-01-28T05:13:53.477Z,1026
2024-01-28T05:16:53.484Z,1026
2024-01-28T05:19:53.537Z,1026.1
2024-01-28T05:22:53.483Z,1026
2024-01-28T05:25:53.521Z,1026.1
2024-01-28T05:28:53.483Z,1026
2024-01-28T05:31:53.488Z,1026
2024-01-28T05:34:53.536Z,1026
2024-01-28T05:37:53.483Z,1026
2024-01-28T05:40:53.481Z,1025.9
2024-01-28T05:43:53.480Z,1026
2024-01-28T05:46:53.488Z,1026
2024-01-28T05:49:53.550Z,1025.9
2024-01-28T05:52:53.496Z,1025.8
2024-01-28T05:55:53.497Z,1025.8
2024-01-28T05:58:53.483Z,1025.9
2024-01-28T06:01:53.484Z,1026
2024-01-28T06:04:53.505Z,1025.8
2024-01-28T06:07:53.479Z,1025.8
2024-01-28T06:10:53.500Z,1025.9
2024-01-28T06:13:53.491Z,1025.9
2024-01-28T06:16:53.495Z,1025.8
2024-01-28T06:19:53.508Z,1025.7
2024-01-28T06:22:53.504Z,1025.7
2024-01-28T06:25:53.516Z,1025.7
2024-01-28T06:28:53.509Z,1025.8
2024-01-28T06:31:53.511Z,1025.8
2024-01-28T06:34:53.614Z,1025.8
2024-01-28T06:37:53.520Z,1025.8
2024-01-28T06:40:53.518Z,1025.8
2024-01-28T06:43:53.504Z,1025.7
2024-01-28T06:46:53.515Z,1025.7
2024-01-28T06:49:53.549Z,1025.8
2024-01-28T06:52:53.515Z,1025.7
2024-01-28T06:55:53.521Z,1025.8
2024-01-28T06:58:53.530Z,1025.9
2024-01-28T07:01:53.565Z,1025.8
2024-01-28T07:04:53.601Z,1025.8
2024-01-28T07:07:53.528Z,1025.9
2024-01-28T07:10:53.553Z,1025.8
2024-01-28T07:13:53.532Z,1025.7
2024-01-28T07:16:53.527Z,1025.8
2024-01-28T07:19:53.569Z,1025.8
2024-01-28T07:22:53.535Z,1025.8
2024-01-28T07:25:53.540Z,1025.9
2024-01-28T07:28:53.537Z,1025.9
2024-01-28T07:31:53.533Z,1025.8
2024-01-28T07:34:53.678Z,1025.8
2024-01-28T07:37:53.549Z,1025.8
2024-01-28T07:40:53.558Z,1025.7
2024-01-28T07:43:53.551Z,1025.7
2024-01-28T07:46:53.564Z,1025.6
2024-01-28T07:49:53.637Z,1025.5
2024-01-28T07:52:53.554Z,1025.4
2024-01-28T07:55:53.561Z,1025.4
2024-01-28T07:58:53.570Z,1025.4
2024-01-28T08:01:53.581Z,1025.5
2024-01-28T08:04:53.603Z,1025.6
2024-01-28T08:07:53.596Z,1025.5
2024-01-28T08:10:53.574Z,1025.5
2024-01-28T08:13:53.576Z,1025.5
2024-01-28T08:16:53.573Z,1025.5
2024-01-28T08:19:53.648Z,1025.5
2024-01-28T08:22:53.576Z,1025.4
2024-01-28T08:25:53.581Z,1025.5
2024-01-28T08:28:53.596Z,1025.4
2024-01-28T08:31:53.584Z,1025.5
2024-01-28T08:34:53.623Z,1025.6
2024-01-28T08:37:53.595Z,1025.5
2024-01-28T08:40:53.593Z,1025.5
2024-01-28T08:43:53.596Z,1025.5
2024-01-28T08:46:53.600Z,1025.5
2024-01-28T08:49:53.651Z,1025.5
2024-01-28T08:52:53.603Z,1025.5
2024-01-28T08:55:53.594Z,1025.5
2024-01-28T08:58:53.616Z,1025.5
2024-01-28T09:01:53.666Z,1025.5
2024-01-28T09:04:53.642Z,1025.4
2024-01-28T09:07:53.606Z,1025.5
2024-01-28T09:10:53.614Z,1025.4
2024-01-28T09:13:53.614Z,1025.3
2024-01-28T09:16:53.612Z,1025.3
2024-01-28T09:19:53.640Z,1025.3
2024-01-28T09:22:53.614Z,1025.3
2024-01-28T09:25:53.614Z,1025.3
2024-01-28T09:28:53.621Z,1025.2
2024-01-28T09:31:53.687Z,1025.2
2024-01-28T09:34:53.765Z,1025.2
2024-01-28T09:37:53.624Z,1025.2
2024-01-28T09:40:53.645Z,1025.1
2024-01-28T09:43:53.643Z,1025.1
2024-01-28T09:46:53.643Z,1025.2
2024-01-28T09:49:53.678Z,1025.2
2024-01-28T09:52:53.644Z,1025.2
2024-01-28T09:55:53.653Z,1025.1
2024-01-28T09:58:53.800Z,1025.2
2024-01-28T10:01:53.715Z,1025.1
2024-01-28T10:04:53.643Z,1025
2024-01-28T10:07:53.760Z,1025
2024-01-28T10:10:53.641Z,1025
2024-01-28T10:13:53.642Z,1024.9
2024-01-28T10:16:53.637Z,1025
2024-01-28T10:19:53.670Z,1025
2024-01-28T10:22:53.643Z,1025
2024-01-28T10:25:53.655Z,1024.9
2024-01-28T10:28:53.644Z,1024.8
2024-01-28T10:31:53.651Z,1024.8
2024-01-28T10:34:53.751Z,1024.7
2024-01-28T10:37:53.923Z,1024.7
2024-01-28T10:40:53.649Z,1024.7
2024-01-28T10:43:53.650Z,1024.8
2024-01-28T10:46:53.649Z,1024.7
2024-01-28T10:49:53.866Z,1024.7
2024-01-28T10:52:53.677Z,1024.7
2024-01-28T10:55:53.656Z,1024.7
2024-01-28T10:58:53.658Z,1024.6
2024-01-28T11:01:53.668Z,1024.5
2024-01-28T11:04:53.659Z,1024.5
2024-01-28T11:07:53.667Z,1024.4
2024-01-28T11:10:53.666Z,1024.4
2024-01-28T11:13:53.669Z,1024.3
2024-01-28T11:16:53.665Z,1024.3
2024-01-28T11:19:53.716Z,1024.2
2024-01-28T11:22:53.688Z,1024.3
2024-01-28T11:25:53.682Z,1024.3
2024-01-28T11:28:53.673Z,1024.1
2024-01-28T11:31:53.673Z,1024.1
2024-01-28T11:34:53.765Z,1024.1
2024-01-28T11:37:53.684Z,1024
2024-01-28T11:40:53.677Z,1023.9
2024-01-28T11:43:53.686Z,1023.9
2024-01-28T11:46:53.708Z,1023.9
2024-01-28T11:49:53.718Z,1023.9
2024-01-28T11:52:53.685Z,1023.9
2024-01-28T11:55:53.687Z,1023.9
2024-01-28T11:58:53.683Z,1023.9
2024-01-28T12:01:53.695Z,1023.8
2024-01-28T12:04:53.720Z,1023.8
2024-01-28T12:07:53.716Z,1023.8
2024-01-28T12:10:53.704Z,1023.8
2024-01-28T12:13:53.690Z,1023.7
2024-01-28T12:16:53.706Z,1023.7
2024-01-28T12:19:53.819Z,1023.7
2024-01-28T12:22:53.712Z,1023.7
2024-01-28T12:25:53.704Z,1023.6
2024-01-28T12:28:53.713Z,1023.5
2024-01-28T12:31:53.700Z,1023.4
2024-01-28T12:34:53.765Z,1023.4
2024-01-28T12:37:53.702Z,1023.3
2024-01-28T12:40:53.699Z,1023.3
2024-01-28T12:43:53.853Z,1023.1
2024-01-28T12:46:53.712Z,1023.2
2024-01-28T12:49:53.749Z,1023.2
2024-01-28T12:52:53.731Z,1023.2
2024-01-28T12:55:53.732Z,1023.2
2024-01-28T12:58:53.722Z,1023.1
2024-01-28T13:01:53.740Z,1023
2024-01-28T13:04:53.811Z,1023.1
2024-01-28T13:07:53.733Z,1023.1
2024-01-28T13:10:53.729Z,1023.1
2024-01-28T13:13:53.731Z,1023
2024-01-28T13:16:53.739Z,1023
2024-01-28T13:19:53.844Z,1022.9
2024-01-28T13:22:53.747Z,1022.8
2024-01-28T13:25:53.724Z,1022.8
2024-01-28T13:28:53.732Z,1022.7
2024-01-28T13:31:53.733Z,1022.8
2024-01-28T13:34:53.844Z,1022.6
2024-01-28T13:37:53.737Z,1022.6
2024-01-28T13:40:53.735Z,1022.6
2024-01-28T13:43:53.747Z,1022.6
2024-01-28T13:46:54.808Z,1022.6
2024-01-28T13:49:53.766Z,1022.6
2024-01-28T13:52:53.744Z,1022.6
2024-01-28T13:55:53.737Z,1022.6
2024-01-28T13:58:53.753Z,1022.7
2024-01-28T14:01:53.754Z,1022.7
2024-01-28T14:04:53.741Z,1022.7
2024-01-28T14:07:53.763Z,1022.6
2024-01-28T14:10:53.747Z,1022.6
2024-01-28T14:13:53.748Z,1022.7
2024-01-28T14:16:53.759Z,1022.6
2024-01-28T14:19:53.885Z,1022.6
2024-01-28T14:22:53.750Z,1022.6
2024-01-28T14:25:53.760Z,1022.6
2024-01-28T14:28:53.755Z,1022.6
2024-01-28T14:31:53.773Z,1022.6
2024-01-28T14:34:53.881Z,1022.6
2024-01-28T14:37:53.773Z,1022.6
2024-01-28T14:40:53.768Z,1022.5
2024-01-28T14:43:53.778Z,1022.6
2024-01-28T14:46:54.497Z,1022.6
2024-01-28T14:49:53.791Z,1022.6
2024-01-28T14:52:53.769Z,1022.6
2024-01-28T14:55:53.775Z,1022.6
2024-01-28T14:58:53.786Z,1022.6
2024-01-28T15:01:53.798Z,1022.5
2024-01-28T15:04:53.798Z,1022.5
2024-01-28T15:07:53.779Z,1022.5
2024-01-28T15:10:53.790Z,1022.5
2024-01-28T15:13:53.773Z,1022.5
2024-01-28T15:16:53.787Z,1022.6
2024-01-28T15:19:53.890Z,1022.7
2024-01-28T15:22:53.780Z,1022.6
2024-01-28T15:25:53.788Z,1022.6
2024-01-28T15:28:53.793Z,1022.6
2024-01-28T15:31:53.795Z,1022.5
2024-01-28T15:34:53.904Z,1022.5
2024-01-28T15:37:53.824Z,1022.6
2024-01-28T15:40:53.799Z,1022.6
2024-01-28T15:43:53.799Z,1022.6
2024-01-28T15:46:53.794Z,1022.5
2024-01-28T15:49:53.885Z,1022.5
2024-01-28T15:52:53.822Z,1022.5
2024-01-28T15:55:53.813Z,1022.4
2024-01-28T15:58:53.808Z,1022.4
2024-01-28T16:01:53.842Z,1022.4
2024-01-28T16:04:53.856Z,1022.5
2024-01-28T16:07:53.812Z,1022.5
2024-01-28T16:10:53.813Z,1022.4
2024-01-28T16:13:53.812Z,1022.4
2024-01-28T16:16:53.815Z,1022.4
2024-01-28T16:19:53.872Z,1022.4
2024-01-28T16:22:53.827Z,1022.2
2024-01-28T16:25:53.868Z,1022.3
2024-01-28T16:28:53.823Z,1022.3
2024-01-28T16:31:53.833Z,1022.3
2024-01-28T16:34:53.912Z,1022.2
2024-01-28T16:37:53.835Z,1022.3
2024-01-28T16:40:53.831Z,1022.2
2024-01-28T16:43:53.861Z,1022.3
2024-01-28T16:46:53.834Z,1022.3
2024-01-28T16:49:54.031Z,1022.2
2024-01-28T16:52:53.841Z,1022.3
2024-01-28T16:55:53.852Z,1022.3
2024-01-28T16:58:53.850Z,1022.2
2024-01-28T17:01:53.851Z,1022.2
2024-01-28T17:04:53.853Z,1022.2
2024-01-28T17:07:53.846Z,1022.1
2024-01-28T17:10:53.839Z,1022.1
2024-01-28T17:13:53.849Z,1022.1
2024-01-28T17:16:53.838Z,1022.1
2024-01-28T17:19:54.127Z,1022.1
2024-01-28T17:22:53.856Z,1022
2024-01-28T17:25:53.886Z,1022
2024-01-28T17:28:53.853Z,1022
2024-01-28T17:31:53.848Z,1021.8
2024-01-28T17:34:53.947Z,1021.8
2024-01-28T17:37:53.880Z,1021.8
2024-01-28T17:40:53.884Z,1022
2024-01-28T17:43:53.860Z,1021.9
2024-01-28T17:46:53.949Z,1021.8
2024-01-28T17:49:53.907Z,1021.7
2024-01-28T17:52:53.878Z,1021.7
2024-01-28T17:55:53.868Z,1021.7
2024-01-28T17:58:53.883Z,1021.9
2024-01-28T18:01:53.885Z,1021.8
2024-01-28T18:04:53.894Z,1021.8
2024-01-28T18:07:53.883Z,1021.8
2024-01-28T18:10:53.876Z,1021.8
2024-01-28T18:13:53.949Z,1021.8
2024-01-28T18:16:53.884Z,1021.8
2024-01-28T18:19:53.929Z,1021.7
2024-01-28T18:22:53.892Z,1021.7
2024-01-28T18:25:53.896Z,1021.6
2024-01-28T18:28:53.886Z,1021.6
2024-01-28T18:31:53.893Z,1021.6
2024-01-28T18:34:53.893Z,1021.7
2024-01-28T18:37:53.898Z,1021.6
2024-01-28T18:40:53.905Z,1021.6
2024-01-28T18:43:53.903Z,1021.6
2024-01-28T18:46:53.921Z,1021.5
2024-01-28T18:49:54.082Z,1021.5
2024-01-28T18:52:54.004Z,1021.5
2024-01-28T18:55:54.005Z,1021.5
2024-01-28T18:58:54.005Z,1021.5
2024-01-28T19:01:54.044Z,1021.4
2024-01-28T19:04:54.064Z,1021.4
2024-01-28T19:07:54.005Z,1021.4
2024-01-28T19:10:54.012Z,1021.4
2024-01-28T19:13:54.007Z,1021.3
2024-01-28T19:16:54.017Z,1021.2
2024-01-28T19:19:54.039Z,1021.2
2024-01-28T19:22:54.019Z,1021.3
2024-01-28T19:25:54.021Z,1021.2
2024-01-28T19:28:54.023Z,1021.2
2024-01-28T19:31:54.023Z,1021.1
2024-01-28T19:34:54.105Z,1021.1
2024-01-28T19:37:54.052Z,1021.1
2024-01-28T19:40:54.028Z,1021.1
2024-01-28T19:43:54.024Z,1021.1
2024-01-28T19:46:54.030Z,1021
2024-01-28T19:49:54.102Z,1021
2024-01-28T19:52:54.024Z,1020.9
2024-01-28T19:55:54.028Z,1021
2024-01-28T19:58:54.027Z,1021
2024-01-28T20:01:54.057Z,1020.9
2024-01-28T20:04:54.065Z,1021.1
2024-01-28T20:07:54.035Z,1021
2024-01-28T20:10:54.036Z,1021.1
2024-01-28T20:13:54.039Z,1021
2024-01-28T20:16:54.040Z,1021
2024-01-28T20:19:54.082Z,1021
2024-01-28T20:22:54.045Z,1020.9
2024-01-28T20:25:54.041Z,1021
2024-01-28T20:28:54.047Z,1020.9
2024-01-28T20:31:54.114Z,1020.9
2024-01-28T20:34:54.189Z,1020.8
2024-01-28T20:37:54.054Z,1020.8
2024-01-28T20:40:54.053Z,1020.8
2024-01-28T20:43:54.062Z,1020.8
2024-01-28T20:46:54.050Z,1020.8
2024-01-28T20:49:54.195Z,1020.8
2024-01-28T20:52:54.049Z,1020.9
2024-01-28T20:55:54.047Z,1020.8
2024-01-28T20:58:54.056Z,1020.9
2024-01-28T21:01:54.109Z,1020.9
2024-01-28T21:04:54.051Z,1020.9
2024-01-28T21:07:54.073Z,1020.8
2024-01-28T21:10:54.075Z,1020.8
2024-01-28T21:13:54.058Z,1020.8
2024-01-28T21:16:54.057Z,1020.8
2024-01-28T21:19:54.078Z,1020.7
2024-01-28T21:22:54.071Z,1020.7
2024-01-28T21:25:54.063Z,1020.8
2024-01-28T21:28:54.059Z,1020.7
2024-01-28T21:31:54.065Z,1020.8
2024-01-28T21:34:54.075Z,1020.7
2024-01-28T21:37:54.070Z,1020.7
2024-01-28T21:40:54.062Z,1020.7
2024-01-28T21:43:54.075Z,1020.6
2024-01-28T21:46:54.102Z,1020.7
2024-01-28T21:49:54.099Z,1020.7
2024-01-28T21:52:54.077Z,1020.6
2024-01-28T21:55:54.153Z,1020.6
2024-01-28T21:58:54.065Z,1020.7
2024-01-28T22:01:54.113Z,1020.7
2024-01-28T22:04:54.070Z,1020.7
2024-01-28T22:07:54.133Z,1020.6
2024-01-28T22:10:54.086Z,1020.6
2024-01-28T22:13:54.066Z,1020.5
2024-01-28T22:16:54.083Z,1020.5
2024-01-28T22:19:54.106Z,1020.3
2024-01-28T22:22:54.087Z,1020.3
2024-01-28T22:25:54.071Z,1020.5
2024-01-28T22:28:54.079Z,1020.5
2024-01-28T22:31:54.089Z,1020.4
2024-01-28T22:34:54.190Z,1020.5
2024-01-28T22:37:54.101Z,1020.5
2024-01-28T22:40:54.089Z,1020.5
2024-01-28T22:43:54.089Z,1020.4
2024-01-28T22:46:54.080Z,1020.3
2024-01-28T22:49:54.146Z,1020.4
2024-01-28T22:52:54.096Z,1020.4
2024-01-28T22:55:54.085Z,1020.3
2024-01-28T22:58:54.246Z,1020.3
2024-01-28T23:01:54.132Z,1020.3
2024-01-28T23:04:54.219Z,1020.3
2024-01-28T23:07:54.097Z,1020.3
2024-01-28T23:10:54.091Z,1020.2
2024-01-28T23:13:54.095Z,1020.2
2024-01-28T23:16:54.092Z,1020.2
2024-01-28T23:19:54.150Z,1020.1
2024-01-28T23:22:54.141Z,1020.1
2024-01-28T23:25:54.101Z,1020.1
2024-01-28T23:28:54.104Z,1020.1
2024-01-28T23:31:54.101Z,1020.1
2024-01-28T23:34:54.246Z,1020.1
2024-01-28T23:37:54.112Z,1020.1
2024-01-28T23:40:54.112Z,1020
2024-01-28T23:43:54.102Z,1020
2024-01-28T23:46:54.104Z,1020
2024-01-28T23:49:54.163Z,1020
2024-01-28T23:52:54.124Z,1020.1
2024-01-28T23:55:54.130Z,1020.1
2024-01-28T23:58:54.115Z,1020
